sensor_id;sensor_type;location;lat;lon;timestamp;temperature;humidity
7399;DHT22;3740;50.700;7.184;2023-07-28T00:02:23;17.10;99.90
7399;DHT22;3740;50.700;7.184;2023-07-28T00:04:48;17.10;99.90
7399;DHT22;3740;50.700;7.184;2023-07-28T00:07:14;17.10;99.90
7399;DHT22;3740;50.700;7.184;2023-07-28T00:09:39;17.10;99.90
7399;DHT22;3740;50.700;7.184;2023-07-28T00:12:05;17.10;99.90
7399;DHT22;3740;50.700;7.184;2023-07-28T00:14:31;17.10;99.90
7399;DHT22;3740;50.700;7.184;2023-07-28T00:16:57;17.10;99.90
7399;DHT22;3740;50.700;7.184;2023-07-28T00:19:23;17.20;99.90
7399;DHT22;3740;50.700;7.184;2023-07-28T00:21:49;17.20;99.90
7399;DHT22;3740;50.700;7.184;2023-07-28T00:24:16;17.20;99.90
7399;DHT22;3740;50.700;7.184;2023-07-28T00:26:42;17.20;99.90
7399;DHT22;3740;50.700;7.184;2023-07-28T00:29:07;17.20;99.90
7399;DHT22;3740;50.700;7.184;2023-07-28T00:31:33;17.20;99.90
7399;DHT22;3740;50.700;7.184;2023-07-28T00:33:59;17.20;99.90
7399;DHT22;3740;50.700;7.184;2023-07-28T00:36:25;17.30;99.90
7399;DHT22;3740;50.700;7.184;2023-07-28T00:38:50;17.30;99.90
7399;DHT22;3740;50.700;7.184;2023-07-28T00:41:16;17.30;99.90
7399;DHT22;3740;50.700;7.184;2023-07-28T00:43:41;17.30;99.90
7399;DHT22;3740;50.700;7.184;2023-07-28T00:46:08;17.30;99.90
7399;DHT22;3740;50.700;7.184;2023-07-28T00:48:35;17.30;99.90
7399;DHT22;3740;50.700;7.184;2023-07-28T00:51:00;17.30;99.90
7399;DHT22;3740;50.700;7.184;2023-07-28T00:53:26;17.30;99.90
7399;DHT22;3740;50.700;7.184;2023-07-28T00:55:52;17.40;99.90
7399;DHT22;3740;50.700;7.184;2023-07-28T00:58:19;17.40;99.90
7399;DHT22;3740;50.700;7.184;2023-07-28T01:00:44;17.40;99.90
7399;DHT22;3740;50.700;7.184;2023-07-28T01:03:10;17.40;99.90
7399;DHT22;3740;50.700;7.184;2023-07-28T01:08:28;17.40;99.90
7399;DHT22;3740;50.700;7.184;2023-07-28T01:10:54;17.40;99.90
7399;DHT22;3740;50.700;7.184;2023-07-28T01:13:20;17.40;99.90
7399;DHT22;3740;50.700;7.184;2023-07-28T01:15:45;17.40;99.90
7399;DHT22;3740;50.700;7.184;2023-07-28T01:18:11;17.40;99.90
7399;DHT22;3740;50.700;7.184;2023-07-28T01:20:38;17.40;99.90
7399;DHT22;3740;50.700;7.184;2023-07-28T01:23:19;17.40;99.90
7399;DHT22;3740;50.700;7.184;2023-07-28T01:25:58;17.40;99.90
7399;DHT22;3740;50.700;7.184;2023-07-28T01:28:25;17.40;99.90
7399;DHT22;3740;50.700;7.184;2023-07-28T01:30:51;17.40;99.90
7399;DHT22;3740;50.700;7.184;2023-07-28T01:33:16;17.40;99.90
7399;DHT22;3740;50.700;7.184;2023-07-28T01:35:42;17.40;99.90
7399;DHT22;3740;50.700;7.184;2023-07-28T01:38:07;17.40;99.90
7399;DHT22;3740;50.700;7.184;2023-07-28T01:40:33;17.40;99.90
7399;DHT22;3740;50.700;7.184;2023-07-28T01:42:59;17.40;99.90
7399;DHT22;3740;50.700;7.184;2023-07-28T01:45:24;17.40;99.90
7399;DHT22;3740;50.700;7.184;2023-07-28T01:47:50;17.40;99.90
7399;DHT22;3740;50.700;7.184;2023-07-28T01:50:15;17.50;99.90
7399;DHT22;3740;50.700;7.184;2023-07-28T01:52:41;17.50;99.90
7399;DHT22;3740;50.700;7.184;2023-07-28T01:55:07;17.50;99.90
7399;DHT22;3740;50.700;7.184;2023-07-28T01:57:33;17.50;99.90
7399;DHT22;3740;50.700;7.184;2023-07-28T01:59:59;17.50;99.90
7399;DHT22;3740;50.700;7.184;2023-07-28T02:02:24;17.50;99.90
7399;DHT22;3740;50.700;7.184;2023-07-28T02:04:50;17.50;99.90
7399;DHT22;3740;50.700;7.184;2023-07-28T02:07:15;17.50;99.90
7399;DHT22;3740;50.700;7.184;2023-07-28T02:09:41;17.50;99.90
7399;DHT22;3740;50.700;7.184;2023-07-28T02:12:06;17.50;99.90
7399;DHT22;3740;50.700;7.184;2023-07-28T02:14:32;17.50;99.90
7399;DHT22;3740;50.700;7.184;2023-07-28T02:16:58;17.50;99.90
7399;DHT22;3740;50.700;7.184;2023-07-28T02:19:24;17.50;99.90
7399;DHT22;3740;50.700;7.184;2023-07-28T02:21:50;17.50;99.90
7399;DHT22;3740;50.700;7.184;2023-07-28T02:24:15;17.50;99.90
7399;DHT22;3740;50.700;7.184;2023-07-28T02:26:41;17.50;99.90
7399;DHT22;3740;50.700;7.184;2023-07-28T02:29:06;17.50;99.90
7399;DHT22;3740;50.700;7.184;2023-07-28T02:31:32;17.50;99.90
7399;DHT22;3740;50.700;7.184;2023-07-28T02:33:57;17.50;99.90
7399;DHT22;3740;50.700;7.184;2023-07-28T02:36:23;17.50;99.90
7399;DHT22;3740;50.700;7.184;2023-07-28T02:38:48;17.50;99.90
7399;DHT22;3740;50.700;7.184;2023-07-28T02:41:14;17.50;99.90
7399;DHT22;3740;50.700;7.184;2023-07-28T02:43:39;17.50;99.90
7399;DHT22;3740;50.700;7.184;2023-07-28T02:46:06;17.50;99.90
7399;DHT22;3740;50.700;7.184;2023-07-28T02:48:32;17.50;99.90
7399;DHT22;3740;50.700;7.184;2023-07-28T02:50:57;17.50;99.90
7399;DHT22;3740;50.700;7.184;2023-07-28T02:53:23;17.50;99.90
7399;DHT22;3740;50.700;7.184;2023-07-28T02:55:49;17.50;99.90
7399;DHT22;3740;50.700;7.184;2023-07-28T02:58:15;17.60;99.90
7399;DHT22;3740;50.700;7.184;2023-07-28T03:00:41;17.60;99.90
7399;DHT22;3740;50.700;7.184;2023-07-28T03:03:09;17.60;99.90
7399;DHT22;3740;50.700;7.184;2023-07-28T03:05:39;17.60;99.90
7399;DHT22;3740;50.700;7.184;2023-07-28T03:08:05;17.60;99.90
7399;DHT22;3740;50.700;7.184;2023-07-28T03:10:31;17.60;99.90
7399;DHT22;3740;50.700;7.184;2023-07-28T03:12:57;17.60;99.90
7399;DHT22;3740;50.700;7.184;2023-07-28T03:15:23;17.60;99.90
7399;DHT22;3740;50.700;7.184;2023-07-28T03:17:50;17.60;99.90
7399;DHT22;3740;50.700;7.184;2023-07-28T03:20:16;17.60;99.90
7399;DHT22;3740;50.700;7.184;2023-07-28T03:22:42;17.60;99.90
7399;DHT22;3740;50.700;7.184;2023-07-28T03:25:08;17.60;99.90
7399;DHT22;3740;50.700;7.184;2023-07-28T03:27:33;17.60;99.90
7399;DHT22;3740;50.700;7.184;2023-07-28T03:30:00;17.60;99.90
7399;DHT22;3740;50.700;7.184;2023-07-28T03:32:25;17.60;99.90
7399;DHT22;3740;50.700;7.184;2023-07-28T03:34:51;17.60;99.90
7399;DHT22;3740;50.700;7.184;2023-07-28T03:37:16;17.60;99.90
7399;DHT22;3740;50.700;7.184;2023-07-28T03:39:42;17.60;99.90
7399;DHT22;3740;50.700;7.184;2023-07-28T03:42:08;17.60;99.90
7399;DHT22;3740;50.700;7.184;2023-07-28T03:44:33;17.60;99.90
7399;DHT22;3740;50.700;7.184;2023-07-28T03:46:59;17.60;99.90
7399;DHT22;3740;50.700;7.184;2023-07-28T03:49:25;17.60;99.90
7399;DHT22;3740;50.700;7.184;2023-07-28T03:51:50;17.60;99.90
7399;DHT22;3740;50.700;7.184;2023-07-28T03:54:16;17.60;99.90
7399;DHT22;3740;50.700;7.184;2023-07-28T03:56:41;17.60;99.90
7399;DHT22;3740;50.700;7.184;2023-07-28T03:59:07;17.70;99.90
7399;DHT22;3740;50.700;7.184;2023-07-28T04:01:32;17.70;99.90
7399;DHT22;3740;50.700;7.184;2023-07-28T04:03:58;17.60;99.90
7399;DHT22;3740;50.700;7.184;2023-07-28T04:06:45;17.60;99.90
7399;DHT22;3740;50.700;7.184;2023-07-28T04:09:13;17.60;99.90
7399;DHT22;3740;50.700;7.184;2023-07-28T04:11:38;17.60;99.90
7399;DHT22;3740;50.700;7.184;2023-07-28T04:14:04;17.60;99.90
7399;DHT22;3740;50.700;7.184;2023-07-28T04:16:30;17.70;99.90
7399;DHT22;3740;50.700;7.184;2023-07-28T04:18:56;17.70;99.90
7399;DHT22;3740;50.700;7.184;2023-07-28T04:21:21;17.70;99.90
7399;DHT22;3740;50.700;7.184;2023-07-28T04:23:47;17.70;99.90
7399;DHT22;3740;50.700;7.184;2023-07-28T04:26:12;17.70;99.90
7399;DHT22;3740;50.700;7.184;2023-07-28T04:28:38;17.70;99.90
7399;DHT22;3740;50.700;7.184;2023-07-28T04:31:03;17.70;99.90
7399;DHT22;3740;50.700;7.184;2023-07-28T04:33:29;17.70;99.90
7399;DHT22;3740;50.700;7.184;2023-07-28T04:35:54;17.70;99.90
7399;DHT22;3740;50.700;7.184;2023-07-28T04:38:20;17.70;99.90
7399;DHT22;3740;50.700;7.184;2023-07-28T04:40:45;17.70;99.90
7399;DHT22;3740;50.700;7.184;2023-07-28T04:43:11;17.70;99.90
7399;DHT22;3740;50.700;7.184;2023-07-28T04:45:37;17.70;99.90
7399;DHT22;3740;50.700;7.184;2023-07-28T04:48:02;17.70;99.90
7399;DHT22;3740;50.700;7.184;2023-07-28T04:50:28;17.70;99.90
7399;DHT22;3740;50.700;7.184;2023-07-28T04:52:54;17.80;99.90
7399;DHT22;3740;50.700;7.184;2023-07-28T04:55:20;17.80;99.90
7399;DHT22;3740;50.700;7.184;2023-07-28T04:57:46;17.80;99.90
7399;DHT22;3740;50.700;7.184;2023-07-28T05:00:12;17.80;99.90
7399;DHT22;3740;50.700;7.184;2023-07-28T05:02:37;17.80;99.90
7399;DHT22;3740;50.700;7.184;2023-07-28T05:05:03;17.90;99.90
7399;DHT22;3740;50.700;7.184;2023-07-28T05:07:29;17.90;99.90
7399;DHT22;3740;50.700;7.184;2023-07-28T05:09:54;17.90;99.90
7399;DHT22;3740;50.700;7.184;2023-07-28T05:12:20;17.90;99.90
7399;DHT22;3740;50.700;7.184;2023-07-28T05:14:46;17.90;99.90
7399;DHT22;3740;50.700;7.184;2023-07-28T05:17:11;18.00;99.90
7399;DHT22;3740;50.700;7.184;2023-07-28T05:19:37;18.00;99.90
7399;DHT22;3740;50.700;7.184;2023-07-28T05:22:03;18.00;99.90
7399;DHT22;3740;50.700;7.184;2023-07-28T05:24:28;18.00;99.90
7399;DHT22;3740;50.700;7.184;2023-07-28T05:26:54;18.10;99.90
7399;DHT22;3740;50.700;7.184;2023-07-28T05:29:19;18.10;99.90
7399;DHT22;3740;50.700;7.184;2023-07-28T05:31:45;18.10;99.90
7399;DHT22;3740;50.700;7.184;2023-07-28T05:34:11;18.10;99.90
7399;DHT22;3740;50.700;7.184;2023-07-28T05:36:39;18.20;99.90
7399;DHT22;3740;50.700;7.184;2023-07-28T05:39:05;18.20;99.90
7399;DHT22;3740;50.700;7.184;2023-07-28T05:41:31;18.20;99.90
7399;DHT22;3740;50.700;7.184;2023-07-28T05:43:56;18.20;99.90
7399;DHT22;3740;50.700;7.184;2023-07-28T05:46:22;18.30;99.90
7399;DHT22;3740;50.700;7.184;2023-07-28T05:48:47;18.30;99.90
7399;DHT22;3740;50.700;7.184;2023-07-28T05:51:13;18.30;99.90
7399;DHT22;3740;50.700;7.184;2023-07-28T05:53:38;18.40;99.90
7399;DHT22;3740;50.700;7.184;2023-07-28T05:56:04;18.40;99.90
7399;DHT22;3740;50.700;7.184;2023-07-28T05:58:29;18.40;99.90
7399;DHT22;3740;50.700;7.184;2023-07-28T06:00:55;18.40;99.90
7399;DHT22;3740;50.700;7.184;2023-07-28T06:03:21;18.50;99.90
7399;DHT22;3740;50.700;7.184;2023-07-28T06:05:47;18.50;99.90
7399;DHT22;3740;50.700;7.184;2023-07-28T06:08:12;18.50;99.90
7399;DHT22;3740;50.700;7.184;2023-07-28T06:10:39;18.60;99.90
7399;DHT22;3740;50.700;7.184;2023-07-28T06:13:04;18.60;99.90
7399;DHT22;3740;50.700;7.184;2023-07-28T06:15:30;18.60;99.90
7399;DHT22;3740;50.700;7.184;2023-07-28T06:17:56;18.60;99.90
7399;DHT22;3740;50.700;7.184;2023-07-28T06:20:22;18.60;99.90
7399;DHT22;3740;50.700;7.184;2023-07-28T06:22:48;18.70;99.90
7399;DHT22;3740;50.700;7.184;2023-07-28T06:25:13;18.70;99.90
7399;DHT22;3740;50.700;7.184;2023-07-28T06:27:39;18.70;99.90
7399;DHT22;3740;50.700;7.184;2023-07-28T06:30:05;18.70;99.90
7399;DHT22;3740;50.700;7.184;2023-07-28T06:32:31;18.80;99.90
7399;DHT22;3740;50.700;7.184;2023-07-28T06:34:56;18.80;99.90
7399;DHT22;3740;50.700;7.184;2023-07-28T06:37:23;18.80;99.90
7399;DHT22;3740;50.700;7.184;2023-07-28T06:39:48;18.90;99.90
7399;DHT22;3740;50.700;7.184;2023-07-28T06:42:14;18.90;99.90
7399;DHT22;3740;50.700;7.184;2023-07-28T06:44:42;18.90;99.90
7399;DHT22;3740;50.700;7.184;2023-07-28T06:47:07;19.00;99.90
7399;DHT22;3740;50.700;7.184;2023-07-28T06:49:33;19.00;99.90
7399;DHT22;3740;50.700;7.184;2023-07-28T06:51:58;19.00;99.90
7399;DHT22;3740;50.700;7.184;2023-07-28T06:54:24;19.10;99.90
7399;DHT22;3740;50.700;7.184;2023-07-28T06:56:50;19.10;99.90
7399;DHT22;3740;50.700;7.184;2023-07-28T06:59:15;19.10;99.90
7399;DHT22;3740;50.700;7.184;2023-07-28T07:01:41;19.20;99.90
7399;DHT22;3740;50.700;7.184;2023-07-28T07:04:06;19.40;99.90
7399;DHT22;3740;50.700;7.184;2023-07-28T07:06:32;19.40;99.90
7399;DHT22;3740;50.700;7.184;2023-07-28T07:08:57;19.50;99.90
7399;DHT22;3740;50.700;7.184;2023-07-28T07:11:23;19.50;99.90
7399;DHT22;3740;50.700;7.184;2023-07-28T07:13:48;19.60;99.90
7399;DHT22;3740;50.700;7.184;2023-07-28T07:16:17;19.70;99.90
7399;DHT22;3740;50.700;7.184;2023-07-28T07:18:43;19.80;99.90
7399;DHT22;3740;50.700;7.184;2023-07-28T07:21:09;19.80;99.90
7399;DHT22;3740;50.700;7.184;2023-07-28T07:23:38;19.80;99.90
7399;DHT22;3740;50.700;7.184;2023-07-28T07:26:03;19.70;99.90
7399;DHT22;3740;50.700;7.184;2023-07-28T07:28:29;19.70;99.90
7399;DHT22;3740;50.700;7.184;2023-07-28T07:30:55;19.70;99.90
7399;DHT22;3740;50.700;7.184;2023-07-28T07:33:21;19.70;99.90
7399;DHT22;3740;50.700;7.184;2023-07-28T07:35:46;19.70;99.90
7399;DHT22;3740;50.700;7.184;2023-07-28T07:38:12;19.70;99.90
7399;DHT22;3740;50.700;7.184;2023-07-28T07:40:37;19.80;99.90
7399;DHT22;3740;50.700;7.184;2023-07-28T07:43:03;19.80;99.90
7399;DHT22;3740;50.700;7.184;2023-07-28T07:45:30;19.80;99.90
7399;DHT22;3740;50.700;7.184;2023-07-28T07:47:56;19.90;99.90
7399;DHT22;3740;50.700;7.184;2023-07-28T07:50:21;19.90;99.90
7399;DHT22;3740;50.700;7.184;2023-07-28T07:52:47;20.00;99.90
7399;DHT22;3740;50.700;7.184;2023-07-28T07:55:13;20.00;99.90
7399;DHT22;3740;50.700;7.184;2023-07-28T07:57:39;20.00;99.90
7399;DHT22;3740;50.700;7.184;2023-07-28T08:00:05;20.10;99.90
7399;DHT22;3740;50.700;7.184;2023-07-28T08:02:31;20.20;99.90
7399;DHT22;3740;50.700;7.184;2023-07-28T08:04:57;20.20;99.90
7399;DHT22;3740;50.700;7.184;2023-07-28T08:07:22;20.20;99.90
7399;DHT22;3740;50.700;7.184;2023-07-28T08:09:49;20.20;99.90
7399;DHT22;3740;50.700;7.184;2023-07-28T08:12:15;20.20;99.90
7399;DHT22;3740;50.700;7.184;2023-07-28T08:14:41;20.30;99.90
7399;DHT22;3740;50.700;7.184;2023-07-28T08:17:08;20.20;99.90
7399;DHT22;3740;50.700;7.184;2023-07-28T08:19:34;20.20;99.90
7399;DHT22;3740;50.700;7.184;2023-07-28T08:21:59;20.20;99.90
7399;DHT22;3740;50.700;7.184;2023-07-28T08:24:25;20.20;99.90
7399;DHT22;3740;50.700;7.184;2023-07-28T08:26:50;20.30;99.90
7399;DHT22;3740;50.700;7.184;2023-07-28T08:29:16;20.30;99.90
7399;DHT22;3740;50.700;7.184;2023-07-28T08:31:42;20.30;99.90
7399;DHT22;3740;50.700;7.184;2023-07-28T08:34:08;20.40;99.90
7399;DHT22;3740;50.700;7.184;2023-07-28T08:36:33;20.40;99.90
7399;DHT22;3740;50.700;7.184;2023-07-28T08:38:59;20.50;99.90
7399;DHT22;3740;50.700;7.184;2023-07-28T08:41:25;20.60;99.90
7399;DHT22;3740;50.700;7.184;2023-07-28T08:43:51;20.70;99.90
7399;DHT22;3740;50.700;7.184;2023-07-28T08:46:19;20.80;99.90
7399;DHT22;3740;50.700;7.184;2023-07-28T08:48:45;20.90;99.90
7399;DHT22;3740;50.700;7.184;2023-07-28T08:51:12;21.00;99.90
7399;DHT22;3740;50.700;7.184;2023-07-28T08:53:38;21.20;99.90
7399;DHT22;3740;50.700;7.184;2023-07-28T08:56:03;21.30;99.90
7399;DHT22;3740;50.700;7.184;2023-07-28T08:58:29;21.40;99.90
7399;DHT22;3740;50.700;7.184;2023-07-28T09:00:55;21.50;99.90
7399;DHT22;3740;50.700;7.184;2023-07-28T09:03:21;21.50;99.90
7399;DHT22;3740;50.700;7.184;2023-07-28T09:05:47;21.60;99.90
7399;DHT22;3740;50.700;7.184;2023-07-28T09:08:13;21.70;99.90
7399;DHT22;3740;50.700;7.184;2023-07-28T09:10:43;21.70;99.90
7399;DHT22;3740;50.700;7.184;2023-07-28T09:13:10;21.70;99.90
7399;DHT22;3740;50.700;7.184;2023-07-28T09:15:37;21.90;99.90
7399;DHT22;3740;50.700;7.184;2023-07-28T09:18:02;21.80;99.90
7399;DHT22;3740;50.700;7.184;2023-07-28T09:20:34;21.90;99.90
7399;DHT22;3740;50.700;7.184;2023-07-28T09:23:03;21.90;99.90
7399;DHT22;3740;50.700;7.184;2023-07-28T09:25:31;21.80;99.90
7399;DHT22;3740;50.700;7.184;2023-07-28T09:27:57;21.80;99.90
7399;DHT22;3740;50.700;7.184;2023-07-28T09:30:24;21.60;99.90
7399;DHT22;3740;50.700;7.184;2023-07-28T09:32:51;21.50;99.90
7399;DHT22;3740;50.700;7.184;2023-07-28T09:35:18;21.40;99.90
7399;DHT22;3740;50.700;7.184;2023-07-28T09:37:46;21.40;99.90
7399;DHT22;3740;50.700;7.184;2023-07-28T09:40:14;21.40;99.90
7399;DHT22;3740;50.700;7.184;2023-07-28T09:42:41;21.30;99.90
7399;DHT22;3740;50.700;7.184;2023-07-28T09:45:08;21.20;99.90
7399;DHT22;3740;50.700;7.184;2023-07-28T09:47:35;21.20;99.90
7399;DHT22;3740;50.700;7.184;2023-07-28T09:50:03;21.10;99.90
7399;DHT22;3740;50.700;7.184;2023-07-28T09:52:43;21.10;99.90
7399;DHT22;3740;50.700;7.184;2023-07-28T09:55:11;21.10;99.90
7399;DHT22;3740;50.700;7.184;2023-07-28T09:57:43;21.00;99.90
7399;DHT22;3740;50.700;7.184;2023-07-28T10:00:17;21.00;99.90
7399;DHT22;3740;50.700;7.184;2023-07-28T10:02:44;20.90;99.90
7399;DHT22;3740;50.700;7.184;2023-07-28T10:05:10;21.00;99.90
7399;DHT22;3740;50.700;7.184;2023-07-28T10:07:39;21.00;99.90
7399;DHT22;3740;50.700;7.184;2023-07-28T10:10:06;21.00;99.90
7399;DHT22;3740;50.700;7.184;2023-07-28T10:12:50;21.10;99.90
7399;DHT22;3740;50.700;7.184;2023-07-28T10:15:17;21.20;99.90
7399;DHT22;3740;50.700;7.184;2023-07-28T10:17:48;21.30;99.90
7399;DHT22;3740;50.700;7.184;2023-07-28T10:20:34;21.50;99.90
7399;DHT22;3740;50.700;7.184;2023-07-28T10:23:14;21.70;99.90
7399;DHT22;3740;50.700;7.184;2023-07-28T10:25:42;21.90;99.90
7399;DHT22;3740;50.700;7.184;2023-07-28T10:28:35;22.10;99.90
7399;DHT22;3740;50.700;7.184;2023-07-28T10:31:05;22.30;99.90
7399;DHT22;3740;50.700;7.184;2023-07-28T10:33:32;22.40;99.90
7399;DHT22;3740;50.700;7.184;2023-07-28T10:35:59;22.50;99.90
7399;DHT22;3740;50.700;7.184;2023-07-28T10:38:35;22.70;99.90
7399;DHT22;3740;50.700;7.184;2023-07-28T10:41:12;22.80;99.90
7399;DHT22;3740;50.700;7.184;2023-07-28T10:43:39;22.90;99.90
7399;DHT22;3740;50.700;7.184;2023-07-28T10:46:11;23.00;99.90
7399;DHT22;3740;50.700;7.184;2023-07-28T10:48:42;23.00;99.90
7399;DHT22;3740;50.700;7.184;2023-07-28T10:51:08;23.00;99.90
7399;DHT22;3740;50.700;7.184;2023-07-28T10:53:33;22.90;99.90
7399;DHT22;3740;50.700;7.184;2023-07-28T10:56:02;22.80;99.90
7399;DHT22;3740;50.700;7.184;2023-07-28T10:58:28;22.60;99.90
7399;DHT22;3740;50.700;7.184;2023-07-28T11:00:54;22.40;99.90
7399;DHT22;3740;50.700;7.184;2023-07-28T11:03:20;22.30;99.90
7399;DHT22;3740;50.700;7.184;2023-07-28T11:05:45;22.10;99.90
7399;DHT22;3740;50.700;7.184;2023-07-28T11:08:13;22.00;99.90
7399;DHT22;3740;50.700;7.184;2023-07-28T11:10:39;22.00;99.90
7399;DHT22;3740;50.700;7.184;2023-07-28T11:13:06;22.10;99.90
7399;DHT22;3740;50.700;7.184;2023-07-28T11:15:32;22.20;99.90
7399;DHT22;3740;50.700;7.184;2023-07-28T11:17:58;22.20;99.90
7399;DHT22;3740;50.700;7.184;2023-07-28T11:20:27;22.30;99.90
7399;DHT22;3740;50.700;7.184;2023-07-28T11:22:58;22.40;99.90
7399;DHT22;3740;50.700;7.184;2023-07-28T11:25:26;22.60;99.90
7399;DHT22;3740;50.700;7.184;2023-07-28T11:27:52;22.90;99.90
7399;DHT22;3740;50.700;7.184;2023-07-28T11:30:19;23.50;99.90
7399;DHT22;3740;50.700;7.184;2023-07-28T11:32:46;24.60;99.90
7399;DHT22;3740;50.700;7.184;2023-07-28T11:35:13;26.00;99.90
7399;DHT22;3740;50.700;7.184;2023-07-28T11:37:44;26.80;99.90
7399;DHT22;3740;50.700;7.184;2023-07-28T11:40:11;26.80;99.90
7399;DHT22;3740;50.700;7.184;2023-07-28T11:42:41;26.70;99.90
7399;DHT22;3740;50.700;7.184;2023-07-28T11:45:09;26.80;99.90
7399;DHT22;3740;50.700;7.184;2023-07-28T11:47:35;26.70;99.90
7399;DHT22;3740;50.700;7.184;2023-07-28T11:50:01;26.50;99.90
7399;DHT22;3740;50.700;7.184;2023-07-28T11:52:34;26.30;99.90
7399;DHT22;3740;50.700;7.184;2023-07-28T11:55:01;25.90;99.90
7399;DHT22;3740;50.700;7.184;2023-07-28T11:57:29;25.70;99.90
7399;DHT22;3740;50.700;7.184;2023-07-28T12:00:01;25.60;99.90
7399;DHT22;3740;50.700;7.184;2023-07-28T12:02:31;25.70;99.90
7399;DHT22;3740;50.700;7.184;2023-07-28T12:04:57;25.50;99.90
7399;DHT22;3740;50.700;7.184;2023-07-28T12:07:33;25.20;99.90
7399;DHT22;3740;50.700;7.184;2023-07-28T12:10:05;25.00;99.90
7399;DHT22;3740;50.700;7.184;2023-07-28T12:12:45;24.70;99.90
7399;DHT22;3740;50.700;7.184;2023-07-28T12:15:24;24.40;99.90
7399;DHT22;3740;50.700;7.184;2023-07-28T12:18:09;24.20;99.90
7399;DHT22;3740;50.700;7.184;2023-07-28T12:20:36;23.80;99.90
7399;DHT22;3740;50.700;7.184;2023-07-28T12:23:03;23.40;99.90
7399;DHT22;3740;50.700;7.184;2023-07-28T12:25:29;23.10;99.90
7399;DHT22;3740;50.700;7.184;2023-07-28T12:27:54;23.00;99.90
7399;DHT22;3740;50.700;7.184;2023-07-28T12:30:20;23.00;99.90
7399;DHT22;3740;50.700;7.184;2023-07-28T12:32:47;23.20;99.90
7399;DHT22;3740;50.700;7.184;2023-07-28T12:35:12;23.50;99.90
7399;DHT22;3740;50.700;7.184;2023-07-28T12:37:38;23.70;99.90
7399;DHT22;3740;50.700;7.184;2023-07-28T12:40:04;23.90;99.90
7399;DHT22;3740;50.700;7.184;2023-07-28T12:42:31;24.30;99.90
7399;DHT22;3740;50.700;7.184;2023-07-28T12:44:57;24.60;99.90
7399;DHT22;3740;50.700;7.184;2023-07-28T12:47:23;24.50;99.90
7399;DHT22;3740;50.700;7.184;2023-07-28T12:49:48;24.40;99.90
7399;DHT22;3740;50.700;7.184;2023-07-28T12:52:14;24.10;99.90
7399;DHT22;3740;50.700;7.184;2023-07-28T12:54:40;23.80;99.90
7399;DHT22;3740;50.700;7.184;2023-07-28T12:57:11;23.60;99.90
7399;DHT22;3740;50.700;7.184;2023-07-28T12:59:38;23.30;99.90
7399;DHT22;3740;50.700;7.184;2023-07-28T13:02:03;23.10;99.90
7399;DHT22;3740;50.700;7.184;2023-07-28T13:04:29;22.90;99.90
7399;DHT22;3740;50.700;7.184;2023-07-28T13:06:54;22.90;99.90
7399;DHT22;3740;50.700;7.184;2023-07-28T13:09:20;23.00;99.90
7399;DHT22;3740;50.700;7.184;2023-07-28T13:11:46;23.00;99.90
7399;DHT22;3740;50.700;7.184;2023-07-28T13:14:11;23.10;99.90
7399;DHT22;3740;50.700;7.184;2023-07-28T13:16:37;23.20;99.90
7399;DHT22;3740;50.700;7.184;2023-07-28T13:19:04;23.20;99.90
7399;DHT22;3740;50.700;7.184;2023-07-28T13:21:29;23.30;99.90
7399;DHT22;3740;50.700;7.184;2023-07-28T13:23:55;23.40;99.90
7399;DHT22;3740;50.700;7.184;2023-07-28T13:26:20;23.40;99.90
7399;DHT22;3740;50.700;7.184;2023-07-28T13:28:46;23.30;99.90
7399;DHT22;3740;50.700;7.184;2023-07-28T13:31:17;23.20;99.90
7399;DHT22;3740;50.700;7.184;2023-07-28T13:33:44;23.10;99.90
7399;DHT22;3740;50.700;7.184;2023-07-28T13:36:12;23.10;99.90
7399;DHT22;3740;50.700;7.184;2023-07-28T13:38:37;23.20;99.90
7399;DHT22;3740;50.700;7.184;2023-07-28T13:41:05;23.30;99.90
7399;DHT22;3740;50.700;7.184;2023-07-28T13:43:33;23.40;99.90
7399;DHT22;3740;50.700;7.184;2023-07-28T13:46:02;23.40;99.90
7399;DHT22;3740;50.700;7.184;2023-07-28T13:48:27;23.40;99.90
7399;DHT22;3740;50.700;7.184;2023-07-28T13:50:53;23.40;99.90
7399;DHT22;3740;50.700;7.184;2023-07-28T13:53:18;23.30;99.90
7399;DHT22;3740;50.700;7.184;2023-07-28T13:55:44;23.10;99.90
7399;DHT22;3740;50.700;7.184;2023-07-28T13:58:09;23.10;99.90
7399;DHT22;3740;50.700;7.184;2023-07-28T14:00:35;22.90;99.90
7399;DHT22;3740;50.700;7.184;2023-07-28T14:03:01;22.80;99.90
7399;DHT22;3740;50.700;7.184;2023-07-28T14:05:27;22.80;99.90
7399;DHT22;3740;50.700;7.184;2023-07-28T14:07:53;22.60;99.90
7399;DHT22;3740;50.700;7.184;2023-07-28T14:10:18;22.60;99.90
7399;DHT22;3740;50.700;7.184;2023-07-28T14:12:44;22.30;99.90
7399;DHT22;3740;50.700;7.184;2023-07-28T14:15:09;21.90;99.90
7399;DHT22;3740;50.700;7.184;2023-07-28T14:17:35;21.70;99.90
7399;DHT22;3740;50.700;7.184;2023-07-28T14:20:00;21.20;99.90
7399;DHT22;3740;50.700;7.184;2023-07-28T14:22:26;21.10;99.90
7399;DHT22;3740;50.700;7.184;2023-07-28T14:24:51;20.90;99.90
7399;DHT22;3740;50.700;7.184;2023-07-28T14:27:17;21.00;99.90
7399;DHT22;3740;50.700;7.184;2023-07-28T14:29:42;21.00;99.90
7399;DHT22;3740;50.700;7.184;2023-07-28T14:32:08;21.00;99.90
7399;DHT22;3740;50.700;7.184;2023-07-28T14:34:34;21.00;99.90
7399;DHT22;3740;50.700;7.184;2023-07-28T14:37:03;21.00;99.90
7399;DHT22;3740;50.700;7.184;2023-07-28T14:39:28;21.00;99.90
7399;DHT22;3740;50.700;7.184;2023-07-28T14:41:54;21.00;99.90
7399;DHT22;3740;50.700;7.184;2023-07-28T14:44:20;21.10;99.90
7399;DHT22;3740;50.700;7.184;2023-07-28T14:46:45;21.20;99.90
7399;DHT22;3740;50.700;7.184;2023-07-28T14:49:12;21.20;99.90
7399;DHT22;3740;50.700;7.184;2023-07-28T14:51:37;21.40;99.90
7399;DHT22;3740;50.700;7.184;2023-07-28T14:54:03;21.50;99.90
7399;DHT22;3740;50.700;7.184;2023-07-28T14:56:28;21.60;99.90
7399;DHT22;3740;50.700;7.184;2023-07-28T14:58:55;21.70;99.90
7399;DHT22;3740;50.700;7.184;2023-07-28T15:01:21;21.70;99.90
7399;DHT22;3740;50.700;7.184;2023-07-28T15:03:46;21.80;99.90
7399;DHT22;3740;50.700;7.184;2023-07-28T15:06:12;21.80;99.90
7399;DHT22;3740;50.700;7.184;2023-07-28T15:08:38;21.80;99.90
7399;DHT22;3740;50.700;7.184;2023-07-28T15:11:03;21.80;99.90
7399;DHT22;3740;50.700;7.184;2023-07-28T15:13:29;21.90;99.90
7399;DHT22;3740;50.700;7.184;2023-07-28T15:15:54;22.00;99.90
7399;DHT22;3740;50.700;7.184;2023-07-28T15:18:20;22.00;99.90
7399;DHT22;3740;50.700;7.184;2023-07-28T15:20:46;22.10;99.90
7399;DHT22;3740;50.700;7.184;2023-07-28T15:23:11;22.10;99.90
7399;DHT22;3740;50.700;7.184;2023-07-28T15:25:37;22.10;99.90
7399;DHT22;3740;50.700;7.184;2023-07-28T15:28:11;22.10;99.90
7399;DHT22;3740;50.700;7.184;2023-07-28T15:30:37;22.10;99.90
7399;DHT22;3740;50.700;7.184;2023-07-28T15:33:03;22.20;99.90
7399;DHT22;3740;50.700;7.184;2023-07-28T15:35:29;22.30;99.90
7399;DHT22;3740;50.700;7.184;2023-07-28T15:37:54;22.40;99.90
7399;DHT22;3740;50.700;7.184;2023-07-28T15:40:20;22.40;99.90
7399;DHT22;3740;50.700;7.184;2023-07-28T15:42:45;22.50;99.90
7399;DHT22;3740;50.700;7.184;2023-07-28T15:45:12;22.60;99.90
7399;DHT22;3740;50.700;7.184;2023-07-28T15:47:37;22.60;99.90
7399;DHT22;3740;50.700;7.184;2023-07-28T15:50:03;22.60;99.90
7399;DHT22;3740;50.700;7.184;2023-07-28T15:52:32;22.50;99.90
7399;DHT22;3740;50.700;7.184;2023-07-28T15:54:57;22.50;99.90
7399;DHT22;3740;50.700;7.184;2023-07-28T15:57:23;22.50;99.90
7399;DHT22;3740;50.700;7.184;2023-07-28T15:59:49;22.40;99.90
7399;DHT22;3740;50.700;7.184;2023-07-28T16:02:14;22.30;99.90